createdAt,value
2022-11-05T00:00:05.996Z,28.90
2022-11-05T00:01:06.012Z,37.30
2022-11-05T00:02:06.035Z,32.60
2022-11-05T00:03:05.936Z,31.20
2022-11-05T00:04:05.995Z,26.60
2022-11-05T00:05:05.904Z,30.00
2022-11-05T00:06:05.940Z,24.20
2022-11-05T00:07:05.901Z,27.10
2022-11-05T00:08:05.857Z,26.00
2022-11-05T00:09:05.844Z,28.20
2022-11-05T00:10:05.816Z,27.20
2022-11-05T00:11:05.827Z,27.20
2022-11-05T00:12:05.823Z,26.50
2022-11-05T00:13:05.764Z,24.00
2022-11-05T00:14:05.754Z,24.20
2022-11-05T00:15:05.754Z,24.40
2022-11-05T00:16:05.720Z,25.20
2022-11-05T00:17:05.743Z,26.00
2022-11-05T00:18:05.685Z,27.60
2022-11-05T00:19:05.665Z,25.40
2022-11-05T00:20:05.649Z,24.20
2022-11-05T00:21:05.627Z,24.20
2022-11-05T00:22:05.647Z,24.60
2022-11-05T00:23:05.598Z,26.10
2022-11-05T00:24:05.584Z,23.80
2022-11-05T00:25:05.561Z,21.60
2022-11-05T00:26:05.544Z,22.80
2022-11-05T00:27:05.567Z,23.60
2022-11-05T00:28:05.520Z,22.10
2022-11-05T00:29:05.494Z,24.10
2022-11-05T00:30:05.480Z,21.80
2022-11-05T00:31:05.451Z,24.00
2022-11-05T00:32:05.471Z,22.10
2022-11-05T00:33:05.427Z,24.90
2022-11-05T00:34:05.400Z,24.70
2022-11-05T00:35:05.390Z,21.20
2022-11-05T00:36:05.368Z,23.90
2022-11-05T00:37:05.373Z,23.20
2022-11-05T00:38:05.340Z,25.70
2022-11-05T00:39:05.317Z,26.50
2022-11-05T00:40:05.303Z,25.60
2022-11-05T00:41:05.281Z,21.70
2022-11-05T00:42:05.291Z,25.10
2022-11-05T00:43:05.258Z,24.00
2022-11-05T00:44:05.230Z,21.70
2022-11-05T00:45:05.214Z,22.20
2022-11-05T00:46:05.196Z,23.90
2022-11-05T00:47:05.207Z,22.80
2022-11-05T00:48:05.167Z,23.10
2022-11-05T00:49:05.147Z,22.50
2022-11-05T00:50:05.137Z,23.60
2022-11-05T00:51:05.124Z,25.50
2022-11-05T00:52:05.126Z,27.70
2022-11-05T00:53:05.072Z,20.70
2022-11-05T00:54:05.059Z,25.40
2022-11-05T00:55:05.047Z,22.70
2022-11-05T00:56:05.024Z,20.70
2022-11-05T00:57:05.032Z,27.80
2022-11-05T00:58:04.995Z,22.30
2022-11-05T00:59:04.971Z,24.90
2022-11-05T01:00:04.950Z,21.80
2022-11-05T01:01:04.940Z,22.70
2022-11-05T01:02:05.109Z,24.40
2022-11-05T01:03:04.904Z,22.10
2022-11-05T01:04:04.888Z,23.40
2022-11-05T01:05:04.866Z,27.50
2022-11-05T01:06:04.847Z,27.80
2022-11-05T01:07:04.856Z,27.70
2022-11-05T01:08:04.814Z,28.90
2022-11-05T01:09:04.796Z,25.40
2022-11-05T01:10:04.778Z,29.30
2022-11-05T01:11:04.760Z,34.60
2022-11-05T01:12:04.771Z,38.70
2022-11-05T01:13:07.594Z,35.20
2022-11-05T01:14:06.717Z,35.10
2022-11-05T01:15:04.691Z,45.30
2022-11-05T01:16:04.686Z,36.70
2022-11-05T01:17:04.690Z,30.80
2022-11-05T01:18:04.640Z,25.30
2022-11-05T01:19:04.640Z,27.60
2022-11-05T01:20:04.610Z,23.80
2022-11-05T01:21:04.603Z,26.10
2022-11-05T01:22:04.603Z,32.80
2022-11-05T01:23:07.598Z,32.70
2022-11-05T01:24:04.543Z,32.40
2022-11-05T01:25:04.530Z,28.20
2022-11-05T01:26:04.527Z,32.50
2022-11-05T01:27:04.518Z,25.90
2022-11-05T01:28:04.481Z,27.10
2022-11-05T01:29:04.510Z,29.90
2022-11-05T01:30:04.442Z,29.50
2022-11-05T01:31:04.416Z,26.50
2022-11-05T01:32:04.434Z,25.70
2022-11-05T01:33:04.382Z,27.00
2022-11-05T01:34:04.366Z,30.30
2022-11-05T01:35:04.348Z,26.10
2022-11-05T01:36:04.334Z,29.40
2022-11-05T01:37:04.343Z,30.00
2022-11-05T01:38:04.329Z,30.70
2022-11-05T01:39:04.287Z,33.00
2022-11-05T01:40:04.273Z,28.60
2022-11-05T01:41:04.266Z,28.80
2022-11-05T01:42:04.253Z,28.10
2022-11-05T01:43:04.243Z,36.20
2022-11-05T01:44:04.200Z,32.70
2022-11-05T01:45:04.179Z,35.90
2022-11-05T01:46:04.198Z,30.90
2022-11-05T01:47:04.169Z,32.70
2022-11-05T01:48:04.140Z,36.20
2022-11-05T01:49:04.112Z,34.30
2022-11-05T01:50:04.092Z,31.50
2022-11-05T01:51:04.100Z,31.70
2022-11-05T01:52:04.094Z,30.80
2022-11-05T01:53:04.048Z,28.70
2022-11-05T01:54:04.030Z,32.50
2022-11-05T01:55:04.002Z,32.60
2022-11-05T01:56:03.992Z,33.30
2022-11-05T01:57:04.030Z,33.10
2022-11-05T01:58:03.953Z,36.90
2022-11-05T01:59:03.943Z,35.40
2022-11-05T02:00:03.922Z,40.10
2022-11-05T02:01:03.902Z,39.10
2022-11-05T02:02:04.028Z,35.50
2022-11-05T02:03:03.905Z,35.00
2022-11-05T02:04:03.849Z,33.90
2022-11-05T02:05:03.835Z,36.20
2022-11-05T02:06:03.861Z,34.70
2022-11-05T02:07:03.822Z,41.30
2022-11-05T02:08:03.774Z,38.60
2022-11-05T02:09:03.768Z,35.30
2022-11-05T02:10:03.749Z,36.30
2022-11-05T02:11:03.728Z,31.30
2022-11-05T02:12:03.739Z,29.70
2022-11-05T02:13:03.734Z,33.10
2022-11-05T02:14:03.700Z,31.80
2022-11-05T02:15:03.663Z,35.10
2022-11-05T02:16:03.635Z,33.80
2022-11-05T02:17:03.665Z,35.70
2022-11-05T02:18:03.618Z,35.40
2022-11-05T02:19:03.591Z,33.40
2022-11-05T02:20:03.576Z,34.00
2022-11-05T02:21:03.548Z,32.90
2022-11-05T02:22:03.562Z,34.00
2022-11-05T02:23:03.513Z,33.80
2022-11-05T02:24:03.508Z,33.70
2022-11-05T02:25:03.484Z,34.50
2022-11-05T02:26:03.478Z,35.30
2022-11-05T02:27:03.491Z,34.40
2022-11-05T02:28:03.439Z,34.80
2022-11-05T02:29:03.429Z,32.30
2022-11-05T02:30:03.398Z,35.30
2022-11-05T02:31:03.370Z,33.00
2022-11-05T02:32:03.382Z,34.50
2022-11-05T02:33:03.341Z,31.60
2022-11-05T02:34:03.325Z,33.20
2022-11-05T02:35:03.309Z,35.80
2022-11-05T02:36:03.323Z,39.70
2022-11-05T02:37:03.308Z,37.60
2022-11-05T02:38:03.278Z,33.90
2022-11-05T02:39:03.234Z,39.20
2022-11-05T02:40:03.223Z,36.70
2022-11-05T02:41:03.200Z,35.60
2022-11-05T02:42:05.181Z,38.80
2022-11-05T02:43:04.166Z,37.00
2022-11-05T02:44:03.148Z,36.60
2022-11-05T02:45:03.138Z,39.40
2022-11-05T02:46:03.117Z,37.30
2022-11-05T02:47:03.193Z,43.30
2022-11-05T02:48:03.085Z,36.80
2022-11-05T02:49:03.073Z,41.10
2022-11-05T02:50:03.040Z,37.50
2022-11-05T02:51:03.031Z,37.30
2022-11-05T02:52:03.036Z,38.20
2022-11-05T02:53:02.997Z,44.30
2022-11-05T02:54:02.980Z,41.80
2022-11-05T02:55:03.964Z,41.20
2022-11-05T02:56:02.949Z,42.90
2022-11-05T02:57:02.957Z,40.20
2022-11-05T02:58:02.917Z,43.80
2022-11-05T02:59:02.894Z,42.20
2022-11-05T03:00:02.886Z,39.20
2022-11-05T03:01:02.861Z,44.10
2022-11-05T03:02:02.935Z,43.40
2022-11-05T03:03:02.875Z,45.50
2022-11-05T03:04:03.824Z,45.70
2022-11-05T03:05:02.808Z,47.90
2022-11-05T03:06:02.778Z,42.10
2022-11-05T03:07:02.783Z,51.20
2022-11-05T03:08:02.736Z,45.00
2022-11-05T03:09:02.721Z,46.00
2022-11-05T03:10:02.702Z,43.60
2022-11-05T03:11:02.686Z,44.00
2022-11-05T03:12:02.715Z,44.90
2022-11-05T03:13:03.650Z,46.20
2022-11-05T03:14:02.644Z,47.60
2022-11-05T03:15:02.616Z,43.00
2022-11-05T03:16:02.603Z,48.30
2022-11-05T03:17:02.615Z,52.20
2022-11-05T03:18:02.563Z,44.50
2022-11-05T03:19:02.638Z,49.40
2022-11-05T03:20:02.529Z,49.00
2022-11-05T03:21:02.513Z,50.00
2022-11-05T03:22:02.529Z,49.30
2022-11-05T03:23:02.471Z,59.70
2022-11-05T03:24:02.452Z,59.60
2022-11-05T03:25:02.449Z,57.10
2022-11-05T03:26:02.415Z,60.20
2022-11-05T03:27:02.437Z,60.50
2022-11-05T03:28:02.384Z,58.40
2022-11-05T03:29:02.368Z,66.20
2022-11-05T03:30:02.346Z,67.60
2022-11-05T03:31:02.336Z,71.80
2022-11-05T03:32:02.344Z,67.10
2022-11-05T03:33:02.293Z,67.60
2022-11-05T03:34:02.277Z,72.30
2022-11-05T03:35:02.255Z,72.40
2022-11-05T03:36:02.251Z,70.40
2022-11-05T03:37:02.277Z,74.10
2022-11-05T03:38:02.217Z,69.10
2022-11-05T03:39:02.187Z,72.60
2022-11-05T03:40:02.197Z,78.70
2022-11-05T03:41:02.152Z,72.10
2022-11-05T03:42:02.175Z,68.60
2022-11-05T03:43:02.117Z,69.70
2022-11-05T03:44:02.118Z,71.50
2022-11-05T03:45:02.083Z,78.00
2022-11-05T03:46:02.095Z,69.10
2022-11-05T03:47:02.077Z,76.50
2022-11-05T03:48:02.038Z,70.90
2022-11-05T03:49:02.052Z,71.00
2022-11-05T03:50:02.007Z,74.00
2022-11-05T03:53:00.386Z,72.10
2022-11-05T03:54:01.873Z,76.00
2022-11-05T03:54:56.309Z,69.50
2022-11-05T03:55:56.294Z,64.20
2022-11-05T03:56:56.274Z,77.50
2022-11-05T03:57:56.290Z,67.60
2022-11-05T03:58:59.188Z,74.20
2022-11-05T03:59:57.226Z,71.80
2022-11-05T04:00:56.198Z,71.90
2022-11-05T04:01:56.295Z,68.80
2022-11-05T04:02:56.204Z,67.20
2022-11-05T04:03:56.145Z,67.90
2022-11-05T04:04:56.139Z,69.50
2022-11-05T04:05:56.113Z,66.30
2022-11-05T04:06:56.094Z,74.70
2022-11-05T04:07:56.101Z,66.60
2022-11-05T04:08:56.059Z,71.10
2022-11-05T04:09:56.042Z,68.50
2022-11-05T04:10:56.018Z,69.40
2022-11-05T04:11:56.002Z,74.00
2022-11-05T04:12:56.008Z,68.00
2022-11-05T04:13:55.968Z,72.20
2022-11-05T04:14:55.955Z,64.60
2022-11-05T04:15:55.934Z,74.60
2022-11-05T04:16:55.923Z,72.50
2022-11-05T04:17:55.950Z,74.00
2022-11-05T04:18:55.881Z,69.20
2022-11-05T04:19:55.876Z,73.40
2022-11-05T04:20:55.849Z,65.20
2022-11-05T04:21:55.834Z,59.00
2022-11-05T04:22:56.514Z,66.30
2022-11-05T04:23:55.826Z,62.00
2022-11-05T04:24:55.782Z,58.60
2022-11-05T04:25:55.760Z,65.30
2022-11-05T04:26:55.741Z,57.10
2022-11-05T04:27:55.764Z,66.80
2022-11-05T04:28:55.711Z,60.30
2022-11-05T04:29:55.695Z,53.60
2022-11-05T04:30:55.673Z,48.40
2022-11-05T04:31:55.668Z,49.50
2022-11-05T04:32:55.667Z,49.70
2022-11-05T04:33:55.627Z,46.70
2022-11-05T04:34:55.609Z,45.90
2022-11-05T04:35:55.601Z,48.50
2022-11-05T04:36:55.578Z,46.20
2022-11-05T04:37:55.587Z,43.10
2022-11-05T04:38:55.540Z,49.70
2022-11-05T04:39:55.523Z,50.20
2022-11-05T04:40:55.504Z,47.40
2022-11-05T04:41:55.499Z,48.50
2022-11-05T04:42:55.492Z,47.80
2022-11-05T04:43:55.503Z,45.50
2022-11-05T04:44:55.436Z,49.00
2022-11-05T04:45:55.433Z,51.50
2022-11-05T04:46:55.442Z,48.40
2022-11-05T04:47:55.408Z,50.40
2022-11-05T04:48:55.402Z,46.50
2022-11-05T04:49:55.355Z,46.20
2022-11-05T04:50:55.349Z,45.10
2022-11-05T04:51:55.325Z,47.30
2022-11-05T04:52:55.350Z,47.70
2022-11-05T04:53:55.293Z,44.70
2022-11-05T04:54:55.291Z,43.60
2022-11-05T04:55:55.261Z,45.10
2022-11-05T04:56:55.271Z,47.30
2022-11-05T04:57:55.245Z,46.20
2022-11-05T04:58:55.227Z,43.70
2022-11-05T04:59:55.186Z,50.30
2022-11-05T05:00:55.232Z,48.30
2022-11-05T05:01:55.173Z,50.10
2022-11-05T05:02:56.164Z,51.10
2022-11-05T05:03:55.146Z,50.40
2022-11-05T05:04:55.106Z,46.50
2022-11-05T05:05:59.434Z,55.20
2022-11-05T05:06:56.079Z,51.40
2022-11-05T05:07:55.073Z,54.10
2022-11-05T05:08:55.024Z,50.80
2022-11-05T05:09:55.011Z,55.20
2022-11-05T05:10:55.005Z,54.60
2022-11-05T05:11:54.972Z,53.90
2022-11-05T05:12:54.988Z,59.60
2022-11-05T05:13:54.954Z,52.70
2022-11-05T05:14:54.922Z,58.60
2022-11-05T05:15:54.904Z,54.50
2022-11-05T05:16:54.890Z,57.90
2022-11-05T05:17:54.905Z,57.30
2022-11-05T05:18:54.852Z,62.20
2022-11-05T05:19:54.854Z,60.30
2022-11-05T05:20:54.829Z,52.40
2022-11-05T05:21:54.823Z,52.40
2022-11-05T05:22:54.842Z,53.80
2022-11-05T05:23:54.768Z,58.90
2022-11-05T05:24:54.789Z,57.30
2022-11-05T05:25:54.731Z,61.60
2022-11-05T05:26:54.719Z,60.80
2022-11-05T05:27:54.792Z,57.80
2022-11-05T05:28:54.679Z,67.00
2022-11-05T05:29:54.683Z,64.90
2022-11-05T05:30:58.610Z,62.90
2022-11-05T05:31:55.646Z,61.90
2022-11-05T05:32:54.634Z,65.70
2022-11-05T05:33:54.589Z,62.20
2022-11-05T05:34:54.573Z,61.40
2022-11-05T05:35:54.548Z,69.20
2022-11-05T05:36:54.581Z,71.10
2022-11-05T05:37:54.518Z,74.10
2022-11-05T05:38:54.526Z,74.50
2022-11-05T05:39:54.481Z,75.00
2022-11-05T05:40:54.456Z,76.00
2022-11-05T05:41:54.446Z,79.20
2022-11-05T05:42:54.423Z,77.00
2022-11-05T05:43:54.437Z,76.60
2022-11-05T05:44:54.452Z,76.50
2022-11-05T05:45:54.386Z,81.30
2022-11-05T05:46:54.385Z,80.60
2022-11-05T05:47:54.348Z,85.30
2022-11-05T05:48:54.315Z,79.60
2022-11-05T05:49:54.318Z,85.80
2022-11-05T05:50:54.282Z,79.40
2022-11-05T05:51:54.309Z,100.20
2022-11-05T05:52:54.244Z,83.60
2022-11-05T05:53:54.238Z,89.00
2022-11-05T05:54:54.213Z,89.70
2022-11-05T05:55:54.189Z,88.20
2022-11-05T05:56:54.200Z,90.30
2022-11-05T05:57:54.158Z,85.90
2022-11-05T05:58:54.147Z,92.20
2022-11-05T05:59:54.123Z,85.30
2022-11-05T06:00:54.104Z,87.30
2022-11-05T06:01:54.217Z,93.30
2022-11-05T06:02:54.099Z,96.00
2022-11-05T06:03:54.038Z,83.30
2022-11-05T06:04:54.027Z,79.60
2022-11-05T06:05:54.024Z,95.60
2022-11-05T06:06:54.025Z,83.70
2022-11-05T06:07:53.977Z,89.40
2022-11-05T06:08:53.946Z,91.40
2022-11-05T06:09:53.944Z,85.90
2022-11-05T06:10:53.970Z,82.60
2022-11-05T06:11:53.926Z,87.10
2022-11-05T06:12:53.879Z,83.40
2022-11-05T06:13:53.863Z,85.10
2022-11-05T06:14:53.845Z,86.70
2022-11-05T06:15:53.822Z,88.90
2022-11-05T06:16:53.907Z,91.40
2022-11-05T06:17:53.792Z,94.20
2022-11-05T06:18:53.767Z,91.20
2022-11-05T06:19:53.754Z,76.10
2022-11-05T06:20:53.734Z,87.30
2022-11-05T06:21:53.741Z,90.40
2022-11-05T06:22:53.694Z,94.10
2022-11-05T06:23:53.669Z,95.50
2022-11-05T06:24:53.666Z,76.60
2022-11-05T06:25:53.653Z,79.60
2022-11-05T06:26:53.645Z,79.60
2022-11-05T06:27:53.670Z,79.70
2022-11-05T06:28:53.582Z,89.60
2022-11-05T06:29:53.583Z,84.30
2022-11-05T06:30:53.554Z,79.60
2022-11-05T06:31:53.565Z,85.60
2022-11-05T06:32:53.514Z,97.70
2022-11-05T06:33:53.503Z,91.10
2022-11-05T06:34:53.471Z,101.60
2022-11-05T06:35:53.441Z,96.70
2022-11-05T06:36:54.466Z,94.60
2022-11-05T06:37:53.420Z,107.10
2022-11-05T06:38:53.393Z,126.60
2022-11-05T06:39:53.380Z,111.60
2022-11-05T06:40:53.358Z,101.30
2022-11-05T06:42:55.330Z,110.70
2022-11-05T06:43:53.310Z,101.80
2022-11-05T06:44:53.293Z,97.50
2022-11-05T06:45:53.277Z,106.40
2022-11-05T06:46:53.284Z,98.80
2022-11-05T06:47:53.233Z,89.00
2022-11-05T06:48:53.238Z,87.20
2022-11-05T06:49:53.199Z,95.90
2022-11-05T06:50:53.182Z,85.70
2022-11-05T06:51:53.210Z,94.80
2022-11-05T06:52:53.178Z,92.60
2022-11-05T06:53:53.129Z,96.80
2022-11-05T06:54:53.106Z,98.70
2022-11-05T06:55:53.089Z,87.10
2022-11-05T06:56:53.071Z,89.40
2022-11-05T06:57:53.080Z,89.20
2022-11-05T06:58:53.037Z,91.70
2022-11-05T06:59:58.578Z,89.00
2022-11-05T07:00:55.048Z,85.10
2022-11-05T07:01:53.048Z,80.20
2022-11-05T07:02:52.990Z,73.00
2022-11-05T07:03:52.954Z,78.80
2022-11-05T07:04:52.929Z,71.80
2022-11-05T07:05:52.914Z,85.70
2022-11-05T07:06:52.888Z,73.50
2022-11-05T07:07:52.904Z,75.40
2022-11-05T07:08:52.856Z,74.60
2022-11-05T07:09:52.835Z,79.10
2022-11-05T07:10:52.824Z,77.60
2022-11-05T07:11:52.799Z,75.20
2022-11-05T07:12:52.809Z,79.90
2022-11-05T07:13:52.765Z,69.20
2022-11-05T07:14:52.755Z,67.90
2022-11-05T07:15:52.748Z,64.30
2022-11-05T07:16:52.729Z,48.50
2022-11-05T07:17:52.730Z,52.80
2022-11-05T07:18:52.683Z,48.90
2022-11-05T07:19:52.667Z,42.00
2022-11-05T07:20:52.644Z,40.20
2022-11-05T07:21:52.624Z,39.40
2022-11-05T07:22:52.634Z,32.50
2022-11-05T07:23:52.627Z,30.30
2022-11-05T07:24:52.567Z,34.90
2022-11-05T07:25:52.559Z,36.00
2022-11-05T07:26:52.538Z,30.70
2022-11-05T07:27:52.545Z,25.20
2022-11-05T07:28:52.525Z,28.80
2022-11-05T07:29:52.479Z,28.00
2022-11-05T07:30:52.467Z,21.50
2022-11-05T07:31:52.459Z,20.30
2022-11-05T07:32:52.456Z,22.40
2022-11-05T07:33:52.403Z,19.10
2022-11-05T07:34:52.382Z,20.50
2022-11-05T07:35:52.386Z,18.90
2022-11-05T07:36:52.371Z,19.80
2022-11-05T07:37:52.321Z,18.20
2022-11-05T07:38:54.917Z,17.50
2022-11-05T07:39:54.276Z,17.20
2022-11-05T07:40:52.249Z,17.70
2022-11-05T07:41:52.255Z,20.70
2022-11-05T07:42:52.201Z,18.90
2022-11-05T07:43:52.252Z,19.40
2022-11-05T07:44:52.167Z,20.20
2022-11-05T07:45:52.136Z,14.20
2022-11-05T07:46:52.120Z,15.80
2022-11-05T07:47:52.108Z,17.30
2022-11-05T07:48:52.100Z,16.30
2022-11-05T07:49:52.055Z,17.20
2022-11-05T07:50:52.040Z,18.40
2022-11-05T07:51:52.024Z,14.50
2022-11-05T07:52:52.028Z,20.70
2022-11-05T07:53:51.977Z,17.70
2022-11-05T07:54:51.960Z,14.70
2022-11-05T07:55:51.969Z,14.30
2022-11-05T07:56:51.919Z,15.60
2022-11-05T07:57:51.926Z,15.50
2022-11-05T07:58:51.881Z,15.10
2022-11-05T07:59:52.864Z,17.40
2022-11-05T08:00:51.963Z,16.80
2022-11-05T08:01:51.966Z,18.60
2022-11-05T08:02:51.995Z,16.60
2022-11-05T08:03:51.792Z,17.10
2022-11-05T08:04:51.778Z,16.30
2022-11-05T08:05:51.753Z,16.20
2022-11-05T08:06:51.739Z,18.60
2022-11-05T08:07:51.744Z,19.80
2022-11-05T08:08:51.705Z,18.00
2022-11-05T08:09:51.685Z,17.60
2022-11-05T08:10:51.660Z,16.70
2022-11-05T08:11:53.121Z,16.60
2022-11-05T08:12:52.649Z,15.40
2022-11-05T08:13:51.613Z,15.70
2022-11-05T08:14:51.586Z,15.50
2022-11-05T08:15:51.568Z,19.40
2022-11-05T08:16:51.605Z,16.80
2022-11-05T08:17:51.563Z,14.10
2022-11-05T08:18:51.512Z,17.40
2022-11-05T08:19:51.511Z,17.40
2022-11-05T08:20:51.478Z,20.50
2022-11-05T08:21:51.460Z,16.00
2022-11-05T08:22:51.462Z,16.80
2022-11-05T08:23:51.427Z,16.50
2022-11-05T08:24:51.496Z,15.90
2022-11-05T08:25:51.381Z,16.60
2022-11-05T08:26:51.377Z,12.80
2022-11-05T08:27:51.371Z,13.30
2022-11-05T08:28:51.324Z,15.30
2022-11-05T08:29:51.304Z,18.60
2022-11-05T08:30:51.293Z,12.40
2022-11-05T08:31:51.272Z,13.40
2022-11-05T08:32:51.276Z,12.60
2022-11-05T08:33:51.234Z,11.00
2022-11-05T08:34:51.220Z,12.20
2022-11-05T08:35:51.220Z,10.00
2022-11-05T08:36:51.204Z,14.40
2022-11-05T08:37:51.178Z,11.50
2022-11-05T08:38:51.256Z,13.10
2022-11-05T08:39:51.176Z,12.20
2022-11-05T08:40:51.102Z,11.40
2022-11-05T08:41:51.083Z,12.10
2022-11-05T08:42:51.099Z,11.20
2022-11-05T08:43:51.080Z,12.30
2022-11-05T08:44:51.025Z,13.00
2022-11-05T08:45:51.005Z,11.50
2022-11-05T08:46:50.993Z,13.00
2022-11-05T08:47:50.996Z,10.70
2022-11-05T08:48:50.952Z,11.30
2022-11-05T08:49:50.930Z,10.70
2022-11-05T08:50:50.928Z,7.90
2022-11-05T08:51:50.893Z,10.10
2022-11-05T08:52:50.919Z,11.70
2022-11-05T08:53:50.862Z,10.30
2022-11-05T08:54:50.862Z,10.40
2022-11-05T08:55:50.846Z,9.00
2022-11-05T08:56:50.807Z,11.10
2022-11-05T08:57:50.840Z,8.60
2022-11-05T08:58:50.777Z,10.60
2022-11-05T08:59:50.755Z,7.90
2022-11-05T09:00:50.801Z,8.20
2022-11-05T09:01:50.830Z,7.60
2022-11-05T09:02:50.729Z,9.50
2022-11-05T09:03:50.687Z,10.60
2022-11-05T09:04:50.673Z,9.80
2022-11-05T09:05:50.647Z,10.00
2022-11-05T09:06:50.640Z,10.60
2022-11-05T09:07:50.642Z,8.60
2022-11-05T09:08:50.596Z,10.60
2022-11-05T09:09:50.581Z,9.80
2022-11-05T09:10:50.556Z,7.80
2022-11-05T09:12:11.303Z,9.60
2022-11-05T09:12:52.550Z,11.00
2022-11-05T09:13:50.519Z,10.40
2022-11-05T09:14:50.483Z,7.10
2022-11-05T09:15:50.466Z,8.30
2022-11-05T09:16:50.463Z,9.40
2022-11-05T09:17:50.456Z,9.00
2022-11-05T09:18:50.446Z,9.20
2022-11-05T09:19:50.412Z,7.90
2022-11-05T09:20:50.376Z,6.70
2022-11-05T09:21:50.368Z,9.60
2022-11-05T09:22:50.374Z,10.00
2022-11-05T09:23:50.342Z,7.30
2022-11-05T09:24:50.319Z,8.60
2022-11-05T09:25:50.292Z,8.10
2022-11-05T09:26:50.279Z,7.40
2022-11-05T09:27:50.281Z,10.10
2022-11-05T09:28:50.299Z,8.40
2022-11-05T09:29:50.232Z,11.80
2022-11-05T09:30:50.208Z,7.20
2022-11-05T09:31:50.226Z,9.00
2022-11-05T09:32:50.190Z,8.10
2022-11-05T09:33:50.179Z,8.00
2022-11-05T09:34:50.133Z,7.80
2022-11-05T09:35:50.110Z,9.40
2022-11-05T09:36:50.110Z,6.30
2022-11-05T09:37:50.099Z,8.20
2022-11-05T09:38:50.091Z,6.80
2022-11-05T09:39:50.051Z,9.20
2022-11-05T09:40:50.031Z,7.90
2022-11-05T09:41:50.000Z,5.70
2022-11-05T09:42:50.058Z,7.70
2022-11-05T09:43:49.986Z,7.00
2022-11-05T09:44:49.943Z,9.60
2022-11-05T09:45:49.941Z,6.40
2022-11-05T09:46:49.932Z,9.00
2022-11-05T09:47:49.909Z,5.70
2022-11-05T09:48:49.885Z,6.70
2022-11-05T09:49:49.859Z,7.90
2022-11-05T09:50:49.844Z,5.40
2022-11-05T09:51:49.819Z,9.00
2022-11-05T09:52:49.856Z,6.20
2022-11-05T09:53:49.774Z,4.50
2022-11-05T09:54:49.770Z,5.20
2022-11-05T09:55:49.752Z,6.10
2022-11-05T09:56:49.732Z,6.20
2022-11-05T09:57:49.734Z,6.50
2022-11-05T09:58:49.725Z,6.30
2022-11-05T09:59:49.669Z,8.00
2022-11-05T10:00:49.718Z,6.10
2022-11-05T10:01:49.750Z,6.50
2022-11-05T10:02:49.619Z,5.80
2022-11-05T10:03:49.619Z,4.50
2022-11-05T10:04:49.617Z,7.50
2022-11-05T10:05:49.634Z,5.10
2022-11-05T10:06:49.541Z,5.20
2022-11-05T10:07:49.554Z,6.30
2022-11-05T10:08:49.501Z,5.70
2022-11-05T10:09:49.481Z,7.50
2022-11-05T10:10:49.461Z,6.40
2022-11-05T10:11:49.454Z,6.20
2022-11-05T10:12:49.452Z,6.60
2022-11-05T10:13:49.409Z,6.60
2022-11-05T10:14:49.392Z,5.00
2022-11-05T10:15:49.369Z,6.40
2022-11-05T10:16:49.349Z,8.10
2022-11-05T10:17:49.358Z,8.80
2022-11-05T10:18:49.345Z,4.30
2022-11-05T10:19:49.293Z,4.00
2022-11-05T10:20:49.275Z,4.40
2022-11-05T10:22:06.210Z,7.30
2022-11-05T10:22:51.264Z,8.80
2022-11-05T10:23:49.227Z,7.30
2022-11-05T10:24:49.201Z,6.50
2022-11-05T10:25:49.194Z,7.50
2022-11-05T10:26:49.165Z,6.10
2022-11-05T10:27:49.184Z,5.20
2022-11-05T10:28:49.135Z,6.50
2022-11-05T10:29:49.117Z,8.10
2022-11-05T10:30:49.101Z,5.90
2022-11-05T10:31:49.074Z,6.20
2022-11-05T10:32:49.267Z,8.10
2022-11-05T10:33:49.051Z,6.80
2022-11-05T10:34:49.014Z,6.80
2022-11-05T10:35:49.001Z,6.10
2022-11-05T10:36:48.982Z,6.70
2022-11-05T10:37:48.995Z,6.80
2022-11-05T10:38:48.944Z,7.10
2022-11-05T10:39:48.927Z,7.20
2022-11-05T10:40:48.908Z,5.70
2022-11-05T10:41:48.884Z,7.00
2022-11-05T10:42:48.894Z,8.60
2022-11-05T10:43:48.849Z,6.30
2022-11-05T10:44:48.838Z,5.70
2022-11-05T10:45:48.832Z,8.30
2022-11-05T10:46:48.789Z,7.60
2022-11-05T10:47:48.792Z,4.50
2022-11-05T10:48:48.764Z,6.00
2022-11-05T10:49:48.736Z,5.60
2022-11-05T10:50:48.711Z,5.80
2022-11-05T10:51:48.700Z,7.90
2022-11-05T10:52:49.026Z,5.20
2022-11-05T10:53:48.658Z,5.20
2022-11-05T10:54:48.643Z,7.30
2022-11-05T10:55:48.621Z,5.10
2022-11-05T10:56:48.605Z,5.40
2022-11-05T10:57:48.609Z,5.10
2022-11-05T10:58:48.565Z,6.00
2022-11-05T10:59:48.547Z,5.30
2022-11-05T11:00:48.618Z,6.30
2022-11-05T11:01:48.566Z,5.90
2022-11-05T11:02:48.511Z,5.00
2022-11-05T11:03:48.477Z,4.50
2022-11-05T11:04:48.459Z,4.40
2022-11-05T11:05:48.428Z,5.20
2022-11-05T11:06:48.404Z,5.80
2022-11-05T11:07:48.419Z,5.00
2022-11-05T11:08:48.364Z,4.60
2022-11-05T11:09:48.344Z,5.10
2022-11-05T11:10:48.329Z,6.50
2022-11-05T11:11:48.305Z,6.10
2022-11-05T11:12:48.312Z,5.10
2022-11-05T11:13:48.262Z,4.20
2022-11-05T11:14:48.247Z,3.80
2022-11-05T11:15:48.220Z,5.00
2022-11-05T11:16:48.204Z,3.60
2022-11-05T11:17:48.208Z,4.50
2022-11-05T11:18:48.175Z,6.70
2022-11-05T11:19:48.141Z,4.00
2022-11-05T11:20:48.368Z,4.50
2022-11-05T11:21:48.099Z,6.00
2022-11-05T11:22:48.095Z,6.20
2022-11-05T11:23:48.056Z,5.90
2022-11-05T11:24:48.025Z,9.10
2022-11-05T11:25:48.026Z,7.30
2022-11-05T11:26:47.988Z,6.80
2022-11-05T11:27:47.987Z,6.50
2022-11-05T11:28:47.944Z,6.50
2022-11-05T11:29:49.637Z,5.50
2022-11-05T11:30:48.894Z,6.00
2022-11-05T11:31:47.872Z,5.20
2022-11-05T11:32:47.843Z,6.40
2022-11-05T11:33:48.847Z,7.20
2022-11-05T11:34:47.802Z,7.70
2022-11-05T11:35:47.781Z,5.20
2022-11-05T11:36:47.755Z,5.30
2022-11-05T11:37:47.737Z,3.30
2022-11-05T11:38:47.750Z,4.80
2022-11-05T11:39:47.691Z,5.30
2022-11-05T11:40:47.665Z,5.40
2022-11-05T11:41:47.656Z,5.80
2022-11-05T11:42:47.655Z,5.50
2022-11-05T11:43:47.600Z,5.50
2022-11-05T11:44:47.579Z,4.40
2022-11-05T11:45:47.566Z,6.10
2022-11-05T11:46:47.546Z,5.40
2022-11-05T11:47:47.534Z,5.10
2022-11-05T11:48:47.578Z,6.10
2022-11-05T11:49:47.460Z,8.00
2022-11-05T11:50:47.462Z,6.50
2022-11-05T11:51:50.252Z,6.80
2022-11-05T11:52:48.433Z,5.50
2022-11-05T11:53:47.385Z,5.90
2022-11-05T11:54:47.364Z,4.10
2022-11-05T11:55:47.345Z,5.40
2022-11-05T11:56:47.328Z,6.70
2022-11-05T11:57:47.330Z,5.30
2022-11-05T11:58:47.286Z,7.20
2022-11-05T12:00:07.640Z,6.50
2022-11-05T12:00:49.272Z,5.90
2022-11-05T12:01:47.259Z,5.40
2022-11-05T12:02:47.332Z,5.70
2022-11-05T12:03:47.181Z,8.20
2022-11-05T12:04:47.183Z,5.90
2022-11-05T12:05:47.146Z,5.60
2022-11-05T12:06:47.115Z,5.20
2022-11-05T12:07:47.122Z,6.30
2022-11-05T12:08:52.273Z,6.60
2022-11-05T12:09:49.064Z,6.10
2022-11-05T12:10:47.056Z,6.10
2022-11-05T12:11:47.013Z,5.70
2022-11-05T12:12:47.022Z,7.40
2022-11-05T12:13:46.983Z,6.00
2022-11-05T12:14:46.988Z,6.80
2022-11-05T12:15:46.932Z,5.90
2022-11-05T12:16:46.911Z,5.50
2022-11-05T12:17:46.918Z,6.30
2022-11-05T12:18:46.864Z,6.80
2022-11-05T12:19:46.852Z,6.00
2022-11-05T12:20:48.349Z,5.20
2022-11-05T12:21:53.119Z,4.90
2022-11-05T12:22:48.822Z,5.50
2022-11-05T12:23:46.767Z,5.30
2022-11-05T12:24:46.756Z,5.00
2022-11-05T12:25:46.718Z,5.90
2022-11-05T12:26:47.704Z,4.70
2022-11-05T12:27:46.731Z,4.50
2022-11-05T12:29:16.664Z,4.80
2022-11-05T12:29:48.636Z,5.80
2022-11-05T12:30:46.627Z,4.90
2022-11-05T12:31:46.598Z,5.20
2022-11-05T12:32:46.679Z,5.70
2022-11-05T12:33:46.584Z,4.70
2022-11-05T12:34:46.550Z,4.40
2022-11-05T12:35:48.971Z,4.50
2022-11-05T12:36:48.510Z,5.40
2022-11-05T12:37:46.536Z,8.60
2022-11-05T12:38:46.461Z,7.10
2022-11-05T12:39:46.441Z,5.60
2022-11-05T12:40:46.425Z,3.90
2022-11-05T12:41:46.402Z,6.30
2022-11-05T12:42:46.413Z,8.10
2022-11-05T12:43:46.360Z,5.90
2022-11-05T12:44:46.347Z,7.00
2022-11-05T12:45:46.340Z,6.20
2022-11-05T12:46:46.297Z,5.20
2022-11-05T12:47:46.307Z,6.20
2022-11-05T12:48:46.259Z,5.20
2022-11-05T12:49:46.244Z,6.70
2022-11-05T12:50:46.219Z,6.00
2022-11-05T12:51:46.200Z,6.00
2022-11-05T12:52:46.214Z,6.30
2022-11-05T12:53:46.165Z,4.30
2022-11-05T12:54:46.141Z,7.70
2022-11-05T12:55:48.821Z,5.80
2022-11-05T12:56:46.097Z,6.20
2022-11-05T12:57:46.106Z,6.80
2022-11-05T12:58:46.080Z,6.20
2022-11-05T12:59:46.038Z,6.40
2022-11-05T13:00:46.029Z,5.80
2022-11-05T13:01:46.126Z,7.20
2022-11-05T13:02:45.997Z,8.10